VKG742 ESSA-LEPA
Flight info
| Callsign | VKG742 |
|---|---|
| Flight time | N/A |
| Altitude | 40000 |
| Route | NOSLI6G NOSLI N850 ABAMA DCT MAKEL DCT TOLGI DCT BOMBI DCT GIGET DCT ABUKA DCT KRH DCT NATOR/N0477F410 DCT LUTIX DCT BENOT DCT NEMOS DCT GEVEA DCT INCUS DCT BALSI DCT RETNO DCT TUPOX DCT MTG DCT DIVKO DCT VATIR N852 VERSO L129 LUNIK LUNIK4M |
| Aircraft | A339/H-SDE1E2E3GHIJ1J3J4J5RWXYZ/LB2D1G1 |
Departure
| Time | N/A |
|---|---|
| Airport | Stockholm-Arlanda Airport (ESSA) |
Arrival
| Time | 2026-05-07 11:57 |
|---|---|
| Airport | Palma de Mallorca Airport (LEPA) |
| Time | Latitude | Longitude | Altitude | Speed | Heading |
|---|---|---|---|---|---|
| 2026-05-07 10:46 | 45.94480 | 6.06389 | 40982 ft | 455 kts | 192° |
| 2026-05-07 10:46 | 45.91370 | 6.05701 | 40976 ft | 455 kts | 192° |
| 2026-05-07 10:46 | 45.85215 | 6.04339 | 40974 ft | 456 kts | 192° |
| 2026-05-07 10:47 | 45.78976 | 6.02956 | 40970 ft | 455 kts | 192° |
| 2026-05-07 10:47 | 45.72723 | 6.01576 | 40970 ft | 456 kts | 192° |
| 2026-05-07 10:48 | 45.66466 | 6.00199 | 40970 ft | 455 kts | 192° |
| 2026-05-07 10:48 | 45.60234 | 5.98830 | 40963 ft | 454 kts | 192° |
| 2026-05-07 10:49 | 45.54010 | 5.97468 | 40966 ft | 453 kts | 192° |
| 2026-05-07 10:49 | 45.47793 | 5.96061 | 40960 ft | 453 kts | 194° |
| 2026-05-07 10:50 | 45.41663 | 5.94174 | 40963 ft | 451 kts | 195° |
| 2026-05-07 10:50 | 45.35543 | 5.92268 | 40971 ft | 451 kts | 195° |
| 2026-05-07 10:51 | 45.29417 | 5.90363 | 40979 ft | 452 kts | 195° |
| 2026-05-07 10:51 | 45.23279 | 5.88457 | 40980 ft | 451 kts | 195° |
| 2026-05-07 10:52 | 45.17197 | 5.86571 | 40987 ft | 450 kts | 195° |
| 2026-05-07 10:52 | 45.11069 | 5.84676 | 40989 ft | 449 kts | 196° |
| 2026-05-07 10:53 | 45.04975 | 5.82791 | 40989 ft | 450 kts | 196° |
| 2026-05-07 10:53 | 44.98887 | 5.80915 | 40993 ft | 449 kts | 196° |
| 2026-05-07 10:54 | 44.92811 | 5.79046 | 40991 ft | 449 kts | 196° |
| 2026-05-07 10:54 | 44.86702 | 5.77170 | 40994 ft | 449 kts | 196° |
| 2026-05-07 10:55 | 44.80627 | 5.75310 | 40984 ft | 448 kts | 196° |
| 2026-05-07 10:55 | 44.74556 | 5.73452 | 40986 ft | 448 kts | 196° |
| 2026-05-07 10:56 | 44.68511 | 5.71610 | 40983 ft | 446 kts | 196° |
| 2026-05-07 10:56 | 44.62429 | 5.69761 | 40983 ft | 446 kts | 196° |
| 2026-05-07 10:57 | 44.56390 | 5.67929 | 40972 ft | 446 kts | 196° |
| 2026-05-07 10:57 | 44.50324 | 5.66092 | 40967 ft | 446 kts | 196° |
| 2026-05-07 10:58 | 44.44293 | 5.64269 | 40959 ft | 446 kts | 196° |
| 2026-05-07 10:58 | 44.38271 | 5.62184 | 40960 ft | 443 kts | 200° |
| 2026-05-07 10:59 | 44.32496 | 5.59334 | 40967 ft | 440 kts | 205° |
| 2026-05-07 10:59 | 44.26828 | 5.56229 | 40958 ft | 440 kts | 205° |
| 2026-05-07 11:00 | 44.21161 | 5.53141 | 40947 ft | 439 kts | 205° |
| 2026-05-07 11:00 | 44.15483 | 5.50048 | 40956 ft | 439 kts | 205° |
| 2026-05-07 11:01 | 44.09815 | 5.46964 | 40964 ft | 439 kts | 205° |
| 2026-05-07 11:01 | 44.04109 | 5.43866 | 40962 ft | 438 kts | 205° |
| 2026-05-07 11:02 | 43.98607 | 5.40884 | 40949 ft | 438 kts | 205° |
| 2026-05-07 11:02 | 43.92907 | 5.37794 | 40957 ft | 437 kts | 205° |
| 2026-05-07 11:03 | 43.87250 | 5.34734 | 40949 ft | 437 kts | 204° |
| 2026-05-07 11:03 | 43.81615 | 5.31693 | 40960 ft | 436 kts | 204° |
| 2026-05-07 11:04 | 43.75951 | 5.28643 | 40960 ft | 437 kts | 204° |
| 2026-05-07 11:04 | 43.70303 | 5.25608 | 40963 ft | 436 kts | 204° |
| 2026-05-07 11:05 | 43.64666 | 5.22586 | 40970 ft | 436 kts | 204° |
| 2026-05-07 11:05 | 43.59039 | 5.19576 | 40970 ft | 436 kts | 204° |
| 2026-05-07 11:06 | 43.53379 | 5.16554 | 40971 ft | 435 kts | 204° |
| 2026-05-07 11:06 | 43.47765 | 5.13563 | 40971 ft | 435 kts | 204° |
| 2026-05-07 11:07 | 43.42189 | 5.10452 | 40973 ft | 433 kts | 207° |
| 2026-05-07 11:07 | 43.36826 | 5.06671 | 40970 ft | 431 kts | 213° |
| 2026-05-07 11:08 | 43.31818 | 5.02258 | 40968 ft | 430 kts | 217° |
| 2026-05-07 11:08 | 43.26880 | 4.97617 | 40971 ft | 429 kts | 216° |
| 2026-05-07 11:09 | 43.21962 | 4.93008 | 40971 ft | 429 kts | 217° |
| 2026-05-07 11:09 | 43.17056 | 4.88411 | 40969 ft | 429 kts | 217° |
| 2026-05-07 11:10 | 43.12135 | 4.83806 | 40965 ft | 429 kts | 217° |
| 2026-05-07 11:10 | 43.07219 | 4.79225 | 40969 ft | 429 kts | 216° |
| 2026-05-07 11:11 | 43.02107 | 4.75070 | 40970 ft | 430 kts | 212° |
| 2026-05-07 11:11 | 42.96900 | 4.71114 | 40975 ft | 429 kts | 212° |
| 2026-05-07 11:12 | 42.91684 | 4.67152 | 40971 ft | 429 kts | 212° |
| 2026-05-07 11:12 | 42.86487 | 4.63218 | 40978 ft | 430 kts | 212° |
| 2026-05-07 11:13 | 42.81245 | 4.59261 | 40974 ft | 429 kts | 212° |
| 2026-05-07 11:13 | 42.76052 | 4.55352 | 40976 ft | 429 kts | 212° |
| 2026-05-07 11:14 | 42.70832 | 4.51431 | 40974 ft | 428 kts | 212° |
| 2026-05-07 11:14 | 42.65624 | 4.47523 | 40974 ft | 428 kts | 212° |
| 2026-05-07 11:15 | 42.60442 | 4.43646 | 40975 ft | 428 kts | 212° |
| 2026-05-07 11:15 | 42.55246 | 4.39762 | 40974 ft | 427 kts | 212° |
| 2026-05-07 11:16 | 42.50047 | 4.35888 | 40974 ft | 427 kts | 212° |
| 2026-05-07 11:16 | 42.44850 | 4.32020 | 40978 ft | 427 kts | 211° |
| 2026-05-07 11:17 | 42.39627 | 4.28138 | 40977 ft | 426 kts | 211° |
| 2026-05-07 11:17 | 42.34444 | 4.24294 | 40976 ft | 426 kts | 211° |
| 2026-05-07 11:18 | 42.29263 | 4.20460 | 40976 ft | 425 kts | 211° |
| 2026-05-07 11:18 | 42.24082 | 4.16634 | 40973 ft | 425 kts | 211° |
| 2026-05-07 11:19 | 42.18905 | 4.12819 | 40980 ft | 425 kts | 211° |
| 2026-05-07 11:19 | 42.13754 | 4.09029 | 40974 ft | 425 kts | 211° |
| 2026-05-07 11:20 | 42.08566 | 4.05218 | 40973 ft | 424 kts | 211° |
| 2026-05-07 11:20 | 42.03421 | 4.01449 | 40977 ft | 424 kts | 211° |
| 2026-05-07 11:21 | 41.98178 | 3.97767 | 40972 ft | 426 kts | 208° |
| 2026-05-07 11:21 | 41.92693 | 3.94720 | 40971 ft | 428 kts | 203° |
| 2026-05-07 11:22 | 41.87019 | 3.92410 | 40971 ft | 429 kts | 198° |
| 2026-05-07 11:22 | 41.81150 | 3.90824 | 40968 ft | 431 kts | 194° |
| 2026-05-07 11:23 | 41.75269 | 3.89450 | 40965 ft | 431 kts | 194° |
| 2026-05-07 11:23 | 41.69369 | 3.88076 | 40965 ft | 431 kts | 194° |
| 2026-05-07 11:24 | 41.63464 | 3.86715 | 40963 ft | 431 kts | 194° |
| 2026-05-07 11:24 | 41.57563 | 3.85357 | 40960 ft | 430 kts | 194° |
| 2026-05-07 11:25 | 41.51684 | 3.84005 | 40957 ft | 430 kts | 194° |
| 2026-05-07 11:25 | 41.45786 | 3.82653 | 40965 ft | 430 kts | 194° |
| 2026-05-07 11:26 | 41.39900 | 3.81307 | 40926 ft | 430 kts | 194° |
| 2026-05-07 11:26 | 41.36954 | 3.80634 | 40583 ft | 433 kts | 194° |
| 2026-05-07 11:26 | 41.33994 | 3.79959 | 40023 ft | 436 kts | 194° |
| 2026-05-07 11:27 | 41.30978 | 3.79273 | 39425 ft | 438 kts | 194° |
| 2026-05-07 11:27 | 41.27991 | 3.78595 | 38806 ft | 439 kts | 194° |
| 2026-05-07 11:27 | 41.25005 | 3.77918 | 38226 ft | 438 kts | 194° |
| 2026-05-07 11:27 | 41.22018 | 3.77241 | 37651 ft | 437 kts | 194° |
| 2026-05-07 11:28 | 41.19053 | 3.76511 | 36999 ft | 434 kts | 197° |
| 2026-05-07 11:28 | 41.16111 | 3.75582 | 36391 ft | 428 kts | 200° |
| 2026-05-07 11:28 | 41.13291 | 3.74491 | 35886 ft | 422 kts | 202° |
| 2026-05-07 11:28 | 41.10547 | 3.73233 | 35336 ft | 418 kts | 205° |
| 2026-05-07 11:29 | 41.07842 | 3.71838 | 34809 ft | 415 kts | 206° |
| 2026-05-07 11:29 | 41.05162 | 3.70464 | 34232 ft | 415 kts | 205° |
| 2026-05-07 11:29 | 41.02488 | 3.69095 | 33659 ft | 413 kts | 206° |
| 2026-05-07 11:29 | 40.99836 | 3.67738 | 33124 ft | 410 kts | 206° |
| 2026-05-07 11:30 | 40.97196 | 3.66384 | 32566 ft | 409 kts | 206° |
| 2026-05-07 11:30 | 40.94539 | 3.65019 | 31983 ft | 407 kts | 206° |
| 2026-05-07 11:30 | 40.91914 | 3.63674 | 31389 ft | 406 kts | 206° |
| 2026-05-07 11:30 | 40.89283 | 3.62327 | 30794 ft | 406 kts | 206° |
| 2026-05-07 11:31 | 40.86624 | 3.60965 | 30179 ft | 405 kts | 206° |
| 2026-05-07 11:31 | 40.84008 | 3.59625 | 29559 ft | 406 kts | 206° |
| 2026-05-07 11:31 | 40.81348 | 3.58263 | 28908 ft | 406 kts | 205° |
| 2026-05-07 11:31 | 40.78732 | 3.56924 | 28259 ft | 407 kts | 205° |
| 2026-05-07 11:32 | 40.73453 | 3.54228 | 26933 ft | 409 kts | 205° |
| 2026-05-07 11:32 | 40.70819 | 3.52889 | 26524 ft | 405 kts | 205° |
| 2026-05-07 11:32 | 40.68210 | 3.51561 | 26108 ft | 401 kts | 205° |
| 2026-05-07 11:33 | 40.65629 | 3.50251 | 25691 ft | 397 kts | 205° |
| 2026-05-07 11:33 | 40.63036 | 3.48932 | 25260 ft | 394 kts | 205° |
| 2026-05-07 11:33 | 40.60520 | 3.47654 | 24846 ft | 393 kts | 204° |
| 2026-05-07 11:33 | 40.57947 | 3.46348 | 24423 ft | 391 kts | 204° |
| 2026-05-07 11:34 | 40.55430 | 3.45071 | 23993 ft | 389 kts | 204° |
| 2026-05-07 11:34 | 40.52914 | 3.43797 | 23573 ft | 387 kts | 204° |
| 2026-05-07 11:34 | 40.50413 | 3.42531 | 23158 ft | 386 kts | 204° |
| 2026-05-07 11:34 | 40.47926 | 3.41273 | 22731 ft | 385 kts | 203° |
| 2026-05-07 11:35 | 40.45364 | 3.40256 | 22297 ft | 387 kts | 197° |
| 2026-05-07 11:35 | 40.42683 | 3.39660 | 21877 ft | 389 kts | 189° |
| 2026-05-07 11:35 | 40.39996 | 3.39503 | 21460 ft | 390 kts | 183° |
| 2026-05-07 11:35 | 40.37302 | 3.39619 | 21047 ft | 389 kts | 181° |
| 2026-05-07 11:36 | 40.34605 | 3.39772 | 20635 ft | 387 kts | 181° |
| 2026-05-07 11:36 | 40.31933 | 3.39929 | 20224 ft | 386 kts | 181° |
| 2026-05-07 11:36 | 40.29232 | 3.40088 | 19804 ft | 384 kts | 180° |
| 2026-05-07 11:36 | 40.26608 | 3.40240 | 19395 ft | 382 kts | 180° |
| 2026-05-07 11:37 | 40.23959 | 3.40393 | 18974 ft | 380 kts | 180° |
| 2026-05-07 11:37 | 40.21320 | 3.40544 | 18568 ft | 379 kts | 180° |
| 2026-05-07 11:37 | 40.18691 | 3.40693 | 18150 ft | 377 kts | 179° |
| 2026-05-07 11:37 | 40.16076 | 3.40843 | 17724 ft | 376 kts | 179° |
| 2026-05-07 11:38 | 40.13473 | 3.40993 | 17305 ft | 375 kts | 179° |
| 2026-05-07 11:38 | 40.10884 | 3.41140 | 16893 ft | 373 kts | 179° |
| 2026-05-07 11:38 | 40.08297 | 3.41285 | 16480 ft | 372 kts | 179° |
| 2026-05-07 11:38 | 40.05692 | 3.41430 | 16059 ft | 370 kts | 179° |
| 2026-05-07 11:39 | 40.03130 | 3.41574 | 15652 ft | 369 kts | 179° |
| 2026-05-07 11:39 | 40.00588 | 3.41717 | 15243 ft | 368 kts | 179° |
| 2026-05-07 11:39 | 39.98040 | 3.41859 | 14830 ft | 366 kts | 179° |
| 2026-05-07 11:39 | 39.95503 | 3.42003 | 14414 ft | 365 kts | 179° |
| 2026-05-07 11:40 | 39.92975 | 3.42144 | 14005 ft | 363 kts | 178° |
| 2026-05-07 11:40 | 39.90464 | 3.42286 | 13604 ft | 362 kts | 178° |
| 2026-05-07 11:40 | 39.87941 | 3.42428 | 13182 ft | 361 kts | 178° |
| 2026-05-07 11:40 | 39.85417 | 3.42572 | 12754 ft | 360 kts | 178° |
| 2026-05-07 11:41 | 39.82926 | 3.42713 | 12363 ft | 358 kts | 178° |
| 2026-05-07 11:41 | 39.80450 | 3.42852 | 11950 ft | 357 kts | 178° |
| 2026-05-07 11:41 | 39.77953 | 3.42992 | 11515 ft | 356 kts | 178° |
| 2026-05-07 11:41 | 39.75483 | 3.43131 | 11107 ft | 354 kts | 178° |
| 2026-05-07 11:42 | 39.73025 | 3.43233 | 10671 ft | 353 kts | 182° |
| 2026-05-07 11:42 | 39.70690 | 3.42467 | 10444 ft | 345 kts | 207° |
| 2026-05-07 11:42 | 39.68829 | 3.40590 | 10354 ft | 335 kts | 229° |
| 2026-05-07 11:42 | 39.67623 | 3.38071 | 10266 ft | 325 kts | 243° |
| 2026-05-07 11:43 | 39.66656 | 3.35480 | 10177 ft | 315 kts | 243° |
| 2026-05-07 11:43 | 39.65716 | 3.32974 | 10116 ft | 304 kts | 242° |
| 2026-05-07 11:43 | 39.64795 | 3.30554 | 10059 ft | 294 kts | 242° |
| 2026-05-07 11:43 | 39.63902 | 3.28227 | 10018 ft | 284 kts | 242° |
| 2026-05-07 11:44 | 39.63038 | 3.25984 | 9908 ft | 277 kts | 242° |
| 2026-05-07 11:44 | 39.62174 | 3.23748 | 9599 ft | 278 kts | 242° |
| 2026-05-07 11:44 | 39.61306 | 3.21506 | 9329 ft | 277 kts | 242° |
| 2026-05-07 11:44 | 39.60440 | 3.19267 | 9072 ft | 276 kts | 242° |
| 2026-05-07 11:45 | 39.59583 | 3.17054 | 8809 ft | 275 kts | 242° |
| 2026-05-07 11:45 | 39.58732 | 3.14854 | 8552 ft | 274 kts | 242° |
| 2026-05-07 11:45 | 39.57879 | 3.12654 | 8286 ft | 273 kts | 242° |
| 2026-05-07 11:45 | 39.57027 | 3.10461 | 8022 ft | 273 kts | 242° |
| 2026-05-07 11:46 | 39.56180 | 3.08277 | 7763 ft | 272 kts | 241° |
| 2026-05-07 11:46 | 39.55332 | 3.06095 | 7492 ft | 272 kts | 242° |
| 2026-05-07 11:46 | 39.54483 | 3.03914 | 7240 ft | 271 kts | 242° |
| 2026-05-07 11:46 | 39.53639 | 3.01747 | 6992 ft | 270 kts | 242° |
| 2026-05-07 11:47 | 39.52794 | 2.99578 | 6740 ft | 269 kts | 242° |
| 2026-05-07 11:47 | 39.51948 | 2.97409 | 6469 ft | 269 kts | 242° |
| 2026-05-07 11:47 | 39.51107 | 2.95249 | 6208 ft | 268 kts | 242° |
| 2026-05-07 11:47 | 39.50266 | 2.93092 | 5947 ft | 268 kts | 242° |
| 2026-05-07 11:48 | 39.49428 | 2.90946 | 5691 ft | 267 kts | 242° |
| 2026-05-07 11:48 | 39.48592 | 2.88805 | 5448 ft | 266 kts | 242° |
| 2026-05-07 11:48 | 39.47768 | 2.86699 | 5200 ft | 267 kts | 242° |
| 2026-05-07 11:48 | 39.46929 | 2.84558 | 4949 ft | 267 kts | 242° |
| 2026-05-07 11:49 | 39.46090 | 2.82417 | 4699 ft | 267 kts | 242° |
| 2026-05-07 11:49 | 39.45251 | 2.80274 | 4444 ft | 267 kts | 242° |
| 2026-05-07 11:49 | 39.44413 | 2.78133 | 4197 ft | 268 kts | 242° |
| 2026-05-07 11:49 | 39.43668 | 2.75919 | 3925 ft | 270 kts | 251° |
| 2026-05-07 11:50 | 39.43262 | 2.73545 | 3690 ft | 270 kts | 261° |
| 2026-05-07 11:50 | 39.43029 | 2.71150 | 3554 ft | 266 kts | 263° |
| 2026-05-07 11:50 | 39.42827 | 2.68788 | 3407 ft | 263 kts | 263° |
| 2026-05-07 11:50 | 39.42624 | 2.66460 | 3248 ft | 258 kts | 263° |
| 2026-05-07 11:51 | 39.42418 | 2.64189 | 3095 ft | 252 kts | 263° |
| 2026-05-07 11:51 | 39.42212 | 2.61972 | 2951 ft | 246 kts | 262° |
| 2026-05-07 11:51 | 39.42007 | 2.59815 | 2835 ft | 239 kts | 263° |
| 2026-05-07 11:51 | 39.41897 | 2.57713 | 2688 ft | 232 kts | 281° |
| 2026-05-07 11:52 | 39.42599 | 2.55942 | 2526 ft | 219 kts | 326° |
| 2026-05-07 11:52 | 39.43930 | 2.55270 | 2405 ft | 201 kts | 4° |
| 2026-05-07 11:52 | 39.45276 | 2.55448 | 2273 ft | 189 kts | 20° |
| 2026-05-07 11:52 | 39.46479 | 2.55998 | 2269 ft | 180 kts | 31° |
| 2026-05-07 11:53 | 39.47542 | 2.56835 | 2282 ft | 173 kts | 45° |
| 2026-05-07 11:53 | 39.48342 | 2.57911 | 2285 ft | 161 kts | 56° |
| 2026-05-07 11:53 | 39.48990 | 2.59054 | 2116 ft | 154 kts | 59° |
| 2026-05-07 11:53 | 39.49569 | 2.60182 | 1912 ft | 146 kts | 61° |
| 2026-05-07 11:54 | 39.50089 | 2.61258 | 1723 ft | 139 kts | 62° |
| 2026-05-07 11:54 | 39.50591 | 2.62324 | 1558 ft | 138 kts | 62° |
| 2026-05-07 11:54 | 39.51092 | 2.63393 | 1388 ft | 138 kts | 62° |
| 2026-05-07 11:54 | 39.51588 | 2.64454 | 1230 ft | 138 kts | 61° |
| 2026-05-07 11:55 | 39.52078 | 2.65510 | 1050 ft | 138 kts | 59° |
| 2026-05-07 11:55 | 39.52587 | 2.66567 | 859 ft | 137 kts | 60° |
| 2026-05-07 11:55 | 39.53083 | 2.67621 | 687 ft | 137 kts | 59° |
| 2026-05-07 11:55 | 39.53580 | 2.68661 | 504 ft | 136 kts | 58° |
| 2026-05-07 11:56 | 39.54083 | 2.69713 | 301 ft | 136 kts | 62° |
| 2026-05-07 11:56 | 39.54565 | 2.70745 | 137 ft | 135 kts | 61° |
| 2026-05-07 11:56 | 39.55048 | 2.71780 | 53 ft | 126 kts | 59° |
| 2026-05-07 11:56 | 39.55431 | 2.72582 | 53 ft | 79 kts | 58° |
| 2026-05-07 11:57 | 39.55632 | 2.73009 | 53 ft | 37 kts | 60° |
| 2026-05-07 11:57 | 39.55696 | 2.73221 | 53 ft | 20 kts | 81° |
| 2026-05-07 11:57 | 39.55706 | 2.73367 | 53 ft | 14 kts | 88° |
| 2026-05-07 11:57 | 39.55708 | 2.73482 | 53 ft | 6 kts | 92° |
| 2026-05-07 11:58 | 39.55681 | 2.73523 | 53 ft | 6 kts | 177° |
| 2026-05-07 11:58 | 39.55626 | 2.73502 | 53 ft | 8 kts | 180° |
| 2026-05-07 11:58 | 39.55567 | 2.73538 | 53 ft | 10 kts | 148° |
| 2026-05-07 11:58 | 39.55502 | 2.73590 | 53 ft | 11 kts | 148° |
| 2026-05-07 11:59 | 39.55431 | 2.73646 | 53 ft | 12 kts | 148° |
| 2026-05-07 11:59 | 39.55354 | 2.73707 | 53 ft | 13 kts | 149° |
| 2026-05-07 11:59 | 39.55273 | 2.73771 | 53 ft | 14 kts | 149° |
| 2026-05-07 11:59 | 39.55186 | 2.73839 | 53 ft | 14 kts | 148° |
| 2026-05-07 12:00 | 39.55096 | 2.73910 | 52 ft | 15 kts | 148° |
| 2026-05-07 12:00 | 39.55013 | 2.73976 | 52 ft | 10 kts | 148° |
| 2026-05-07 12:00 | 39.54966 | 2.74006 | 52 ft | 6 kts | 177° |
| 2026-05-07 12:00 | 39.54933 | 2.73956 | 52 ft | 8 kts | 269° |
| 2026-05-07 12:01 | 39.54973 | 2.73898 | 52 ft | 4 kts | 328° |
| 2026-05-07 12:01 | 39.54985 | 2.73861 | 52 ft | 5 kts | 259° |
| 2026-05-07 12:01 | 39.54961 | 2.73805 | 52 ft | 7 kts | 240° |
| 2026-05-07 12:01 | 39.54950 | 2.73780 | 52 ft | 1 kts | 239° |
| 2026-05-07 12:02 | 39.54948 | 2.73776 | 52 ft | 0 kts | 238° |